createdAt,value
2022-10-30T00:01:32.724Z,9.22
2022-10-30T00:04:01.672Z,9.24
2022-10-30T00:06:30.621Z,9.24
2022-10-30T00:08:59.584Z,9.27
2022-10-30T00:11:29.484Z,9.28
2022-10-30T00:13:59.917Z,9.31
2022-10-30T00:16:31.932Z,9.36
2022-10-30T00:19:01.011Z,9.43
2022-10-30T00:21:29.972Z,9.46
2022-10-30T00:23:58.905Z,9.53
2022-10-30T00:26:28.178Z,9.54
2022-10-30T00:28:57.592Z,9.52
2022-10-30T00:31:27.936Z,9.53
2022-10-30T00:33:57.367Z,9.56
2022-10-30T00:36:26.662Z,9.53
2022-10-30T00:38:55.673Z,9.59
2022-10-30T00:41:25.667Z,9.57
2022-10-30T00:43:57.354Z,9.56
2022-10-30T00:46:32.386Z,9.56
2022-10-30T00:49:07.549Z,9.59
2022-10-30T00:51:42.221Z,9.57
2022-10-30T00:54:11.751Z,9.52
2022-10-30T00:56:40.958Z,9.53
2022-10-30T00:59:12.449Z,9.60
2022-10-30T01:01:46.382Z,9.61
2022-10-30T01:04:17.346Z,9.60
2022-10-30T01:06:52.101Z,9.61
2022-10-30T01:09:21.534Z,9.59
2022-10-30T01:11:50.595Z,9.57
2022-10-30T01:14:22.544Z,9.57
2022-10-30T01:17:11.991Z,9.52
2022-10-30T01:19:45.863Z,9.44
2022-10-30T01:22:31.338Z,9.44
2022-10-30T01:25:12.935Z,9.30
2022-10-30T01:28:03.449Z,9.26
2022-10-30T01:30:46.602Z,9.26
2022-10-30T01:33:27.966Z,9.21
2022-10-30T01:36:06.293Z,9.19
2022-10-30T01:38:40.930Z,9.16
2022-10-30T01:41:10.026Z,9.18
2022-10-30T01:43:40.552Z,9.11
2022-10-30T01:46:33.662Z,9.09
2022-10-30T01:49:30.170Z,9.16
2022-10-30T01:52:07.794Z,9.10
2022-10-30T01:54:43.809Z,9.11
2022-10-30T01:57:20.697Z,9.22
2022-10-30T01:59:58.149Z,9.22
2022-10-30T02:02:27.235Z,9.21
2022-10-30T02:04:58.754Z,9.26
2022-10-30T02:07:29.274Z,9.26
2022-10-30T02:09:59.123Z,9.27
2022-10-30T02:12:31.352Z,9.24
2022-10-30T02:15:21.461Z,9.34
2022-10-30T02:17:50.443Z,9.37
2022-10-30T02:20:22.214Z,9.50
2022-10-30T02:22:54.569Z,9.53
2022-10-30T02:25:27.218Z,9.43
2022-10-30T02:27:56.118Z,9.40
2022-10-30T02:30:25.039Z,9.53
2022-10-30T02:32:54.051Z,9.59
2022-10-30T02:35:24.578Z,9.57
2022-10-30T02:37:54.804Z,9.64
2022-10-30T02:40:23.940Z,9.69
2022-10-30T02:42:56.596Z,9.81
2022-10-30T02:45:25.564Z,9.82
2022-10-30T02:47:54.715Z,9.78
2022-10-30T02:50:25.187Z,9.73
2022-10-30T02:52:54.189Z,9.80
2022-10-30T02:55:24.261Z,9.97
2022-10-30T02:57:55.871Z,9.96
2022-10-30T03:00:24.831Z,9.88
2022-10-30T03:02:56.661Z,9.83
2022-10-30T03:05:27.351Z,9.78
2022-10-30T03:07:57.113Z,9.74
2022-10-30T03:10:26.434Z,9.77
2022-10-30T03:12:55.450Z,9.75
2022-10-30T03:15:24.491Z,9.70
2022-10-30T03:17:53.648Z,9.62
2022-10-30T03:20:22.880Z,9.70
2022-10-30T03:22:53.181Z,9.67
2022-10-30T03:25:23.987Z,9.66
2022-10-30T03:27:57.932Z,9.65
2022-10-30T03:30:27.041Z,9.60
2022-10-30T03:32:56.351Z,9.59
2022-10-30T03:35:25.651Z,9.59
2022-10-30T03:37:55.969Z,9.50
2022-10-30T03:40:24.923Z,9.46
2022-10-30T03:42:54.068Z,9.44
2022-10-30T03:45:23.135Z,9.47
2022-10-30T03:47:52.147Z,9.50
2022-10-30T03:50:22.244Z,9.59
2022-10-30T03:52:51.217Z,9.46
2022-10-30T03:55:21.614Z,9.43
2022-10-30T03:57:50.592Z,9.52
2022-10-30T04:00:21.137Z,9.78
2022-10-30T04:02:58.147Z,9.59
2022-10-30T04:05:30.210Z,9.60
2022-10-30T04:08:00.754Z,9.57
2022-10-30T04:10:33.873Z,9.63
2022-10-30T04:13:07.348Z,9.58
2022-10-30T04:15:40.179Z,9.41
2022-10-30T04:18:11.934Z,9.35
2022-10-30T04:20:41.124Z,9.41
2022-10-30T04:23:15.426Z,9.28
2022-10-30T04:25:46.301Z,9.13
2022-10-30T04:28:16.097Z,9.22
2022-10-30T04:30:47.080Z,9.20
2022-10-30T04:33:18.474Z,9.13
2022-10-30T04:35:48.078Z,9.02
2022-10-30T04:38:20.310Z,8.95
2022-10-30T04:40:51.862Z,8.97
2022-10-30T04:43:21.199Z,8.92
2022-10-30T04:45:53.815Z,8.97
2022-10-30T04:48:22.915Z,8.95
2022-10-30T04:50:51.859Z,8.97
2022-10-30T04:53:27.480Z,8.97
2022-10-30T04:56:08.598Z,8.98
2022-10-30T04:58:39.442Z,8.95
2022-10-30T05:01:10.597Z,9.03
2022-10-30T05:03:39.779Z,9.17
2022-10-30T05:06:23.422Z,9.23
2022-10-30T05:08:52.785Z,9.17
2022-10-30T05:11:43.290Z,9.13
2022-10-30T05:14:12.198Z,9.15
2022-10-30T05:16:41.230Z,9.14
2022-10-30T05:19:10.182Z,9.22
2022-10-30T05:21:41.308Z,9.28
2022-10-30T05:24:10.553Z,9.31
2022-10-30T05:26:46.532Z,9.30
2022-10-30T05:29:15.565Z,9.24
2022-10-30T05:31:44.629Z,9.25
2022-10-30T05:34:19.367Z,9.32
2022-10-30T05:36:52.276Z,9.35
2022-10-30T05:39:22.740Z,9.34
2022-10-30T05:41:54.895Z,9.32
2022-10-30T05:44:40.771Z,9.39
2022-10-30T05:47:16.410Z,9.36
2022-10-30T05:49:49.181Z,9.38
2022-10-30T05:52:21.538Z,9.23
2022-10-30T05:54:52.612Z,8.56
2022-10-30T05:57:52.045Z,7.82
2022-10-30T06:00:21.082Z,7.43
2022-10-30T06:02:50.039Z,7.27
2022-10-30T06:05:19.125Z,7.23
2022-10-30T06:07:48.608Z,7.25
2022-10-30T06:10:17.674Z,7.20
2022-10-30T06:13:08.613Z,7.17
2022-10-30T06:15:49.085Z,7.14
2022-10-30T06:18:18.134Z,7.07
2022-10-30T06:20:50.396Z,7.21
2022-10-30T06:23:25.274Z,7.32
2022-10-30T06:25:59.867Z,7.42
2022-10-30T06:28:37.452Z,7.39
2022-10-30T06:31:09.039Z,7.51
2022-10-30T06:33:40.232Z,7.61
2022-10-30T06:36:09.911Z,7.70
2022-10-30T06:38:39.372Z,7.82
2022-10-30T06:41:10.092Z,7.84
2022-10-30T06:44:01.229Z,7.88
2022-10-30T06:46:33.958Z,7.88
2022-10-30T06:49:04.442Z,7.78
2022-10-30T06:51:34.018Z,7.91
2022-10-30T06:54:03.655Z,8.09
2022-10-30T06:56:41.655Z,8.11
2022-10-30T06:59:20.587Z,8.20
2022-10-30T07:02:15.216Z,8.38
2022-10-30T07:04:52.047Z,8.44
2022-10-30T07:07:21.040Z,8.35
2022-10-30T07:09:50.156Z,8.29
2022-10-30T07:12:23.733Z,8.01
2022-10-30T07:15:23.186Z,7.62
2022-10-30T07:18:05.752Z,7.23
2022-10-30T07:20:38.193Z,7.12
2022-10-30T07:23:07.234Z,7.06
2022-10-30T07:25:36.811Z,7.22
2022-10-30T07:28:17.908Z,7.38
2022-10-30T07:31:01.249Z,7.29
2022-10-30T07:34:00.661Z,7.17
2022-10-30T07:36:32.565Z,7.11
2022-10-30T07:39:20.078Z,7.08
2022-10-30T07:42:15.181Z,7.17
2022-10-30T07:45:07.811Z,7.13
2022-10-30T07:47:59.952Z,7.15
2022-10-30T07:50:47.672Z,7.25
2022-10-30T07:53:17.197Z,7.50
2022-10-30T07:55:48.598Z,7.46
2022-10-30T07:58:41.298Z,7.57
2022-10-30T08:01:33.324Z,7.72
2022-10-30T08:04:19.282Z,7.60
2022-10-30T08:06:49.755Z,7.60
2022-10-30T08:09:18.937Z,7.48
2022-10-30T08:11:49.572Z,7.47
2022-10-30T08:14:18.876Z,7.58
2022-10-30T08:16:48.190Z,7.57
2022-10-30T08:19:18.738Z,7.68
2022-10-30T08:21:48.317Z,7.96
2022-10-30T08:24:21.999Z,8.00
2022-10-30T08:26:53.420Z,8.16
2022-10-30T08:29:25.356Z,8.09
2022-10-30T08:31:55.014Z,8.20
2022-10-30T08:34:26.780Z,8.38
2022-10-30T08:36:57.729Z,8.39
2022-10-30T08:39:27.223Z,8.21
2022-10-30T08:41:59.813Z,8.23
2022-10-30T08:44:33.410Z,8.06
2022-10-30T08:47:33.210Z,8.02
2022-10-30T08:50:04.044Z,7.84
2022-10-30T08:52:34.581Z,7.82
2022-10-30T08:55:03.819Z,7.78
2022-10-30T08:57:37.849Z,7.78
2022-10-30T09:00:08.864Z,8.01
2022-10-30T09:03:04.315Z,7.90
2022-10-30T09:05:47.155Z,7.81
2022-10-30T09:08:19.010Z,7.81
2022-10-30T09:11:03.181Z,7.74
2022-10-30T09:13:33.964Z,7.72
2022-10-30T09:16:05.404Z,7.69
2022-10-30T09:18:37.908Z,7.73
2022-10-30T09:21:09.226Z,7.65
2022-10-30T09:23:44.863Z,7.63
2022-10-30T09:27:02.222Z,7.58
2022-10-30T09:29:36.902Z,7.54
2022-10-30T09:32:11.193Z,7.35
2022-10-30T09:34:53.298Z,7.29
2022-10-30T09:37:27.938Z,7.45
2022-10-30T09:40:02.004Z,7.45
2022-10-30T09:42:43.158Z,7.36
2022-10-30T09:45:50.562Z,7.35
2022-10-30T09:48:58.557Z,7.13
2022-10-30T09:51:52.733Z,7.20
2022-10-30T09:54:37.215Z,7.13
2022-10-30T09:57:12.356Z,7.14
2022-10-30T10:00:01.882Z,7.43
2022-10-30T10:02:37.395Z,7.58
2022-10-30T10:05:18.623Z,7.68
2022-10-30T10:08:09.315Z,7.69
2022-10-30T10:11:01.918Z,7.77
2022-10-30T10:13:40.511Z,7.60
2022-10-30T10:16:15.935Z,7.52
2022-10-30T10:18:47.786Z,7.43
2022-10-30T10:21:25.313Z,7.33
2022-10-30T10:23:57.470Z,7.28
2022-10-30T10:26:48.849Z,7.60
2022-10-30T10:29:34.488Z,7.86
2022-10-30T10:32:10.870Z,7.96
2022-10-30T10:34:56.582Z,7.82
2022-10-30T10:37:38.511Z,7.53
2022-10-30T10:40:34.421Z,7.54
2022-10-30T10:43:16.435Z,7.20
2022-10-30T10:45:55.386Z,6.82
2022-10-30T10:48:54.029Z,6.77
2022-10-30T10:51:26.398Z,6.67
2022-10-30T10:53:58.917Z,6.67
2022-10-30T10:56:32.939Z,6.57
2022-10-30T10:59:08.997Z,6.49
2022-10-30T11:01:41.293Z,6.34
2022-10-30T11:04:17.114Z,6.31
2022-10-30T11:06:54.750Z,6.21
2022-10-30T11:09:25.660Z,6.07
2022-10-30T11:11:56.633Z,5.97
2022-10-30T11:14:30.642Z,6.25
2022-10-30T11:17:12.362Z,6.75
2022-10-30T11:19:41.446Z,6.90
2022-10-30T11:22:22.365Z,6.88
2022-10-30T11:24:51.378Z,6.86
2022-10-30T11:27:28.504Z,7.00
2022-10-30T11:30:01.940Z,7.16
2022-10-30T11:32:34.496Z,6.98
2022-10-30T11:35:12.590Z,6.88
2022-10-30T11:37:44.025Z,6.98
2022-10-30T11:40:21.033Z,6.90
2022-10-30T11:43:00.451Z,6.57
2022-10-30T11:45:33.845Z,6.46
2022-10-30T11:48:04.519Z,6.54
2022-10-30T11:50:34.533Z,6.56
2022-10-30T11:53:11.827Z,6.54
2022-10-30T11:55:42.843Z,6.54
2022-10-30T11:58:24.490Z,6.05
2022-10-30T12:01:04.866Z,5.62
2022-10-30T12:03:38.478Z,5.48
2022-10-30T12:06:13.003Z,5.72
2022-10-30T12:08:42.058Z,5.95
2022-10-30T12:11:11.247Z,5.92
2022-10-30T12:13:41.845Z,5.99
2022-10-30T12:16:17.149Z,6.25
2022-10-30T12:18:58.293Z,6.31
2022-10-30T12:21:29.575Z,6.19
2022-10-30T12:24:02.465Z,6.23
2022-10-30T12:26:31.915Z,6.20
2022-10-30T12:29:04.064Z,6.17
2022-10-30T12:31:40.415Z,6.22
2022-10-30T12:34:19.818Z,6.23
2022-10-30T12:36:55.146Z,6.20
2022-10-30T12:39:30.912Z,6.19
2022-10-30T12:42:05.262Z,6.10
2022-10-30T12:44:41.871Z,5.97
2022-10-30T12:47:20.722Z,5.85
2022-10-30T12:49:53.502Z,5.70
2022-10-30T12:52:30.200Z,5.67
2022-10-30T12:55:03.553Z,5.57
2022-10-30T12:57:36.668Z,5.52
2022-10-30T13:00:13.747Z,5.48
2022-10-30T13:02:52.820Z,5.37
2022-10-30T13:05:37.714Z,5.28
2022-10-30T13:08:16.192Z,5.07
2022-10-30T13:10:50.644Z,3.33
2022-10-30T13:13:24.877Z,1.77
2022-10-30T13:15:57.362Z,1.30
2022-10-30T13:18:30.197Z,0.97
2022-10-30T13:21:25.508Z,1.00
2022-10-30T13:23:59.455Z,0.89
2022-10-30T13:26:36.163Z,0.97
2022-10-30T13:29:16.807Z,1.05
2022-10-30T13:31:57.027Z,1.13
2022-10-30T13:34:41.422Z,1.16
2022-10-30T13:37:17.531Z,1.18
2022-10-30T13:40:05.931Z,1.15
2022-10-30T13:42:48.062Z,1.05
2022-10-30T13:45:43.370Z,0.83
2022-10-30T13:48:20.152Z,0.77
2022-10-30T13:51:12.196Z,0.84
2022-10-30T13:53:44.944Z,0.88
2022-10-30T13:56:17.658Z,0.88
2022-10-30T13:58:53.264Z,0.87
2022-10-30T14:01:27.468Z,0.87
2022-10-30T14:04:05.887Z,0.89
2022-10-30T14:06:45.058Z,0.88
2022-10-30T14:09:25.527Z,0.90
2022-10-30T14:11:55.480Z,0.90
2022-10-30T14:14:30.704Z,0.95
2022-10-30T14:17:16.146Z,0.96
2022-10-30T14:20:18.730Z,1.09
2022-10-30T14:23:09.043Z,1.09
2022-10-30T14:25:38.207Z,1.04
2022-10-30T14:28:07.600Z,0.60
2022-10-30T14:30:37.007Z,0.34
2022-10-30T14:33:06.383Z,0.21
2022-10-30T14:35:40.631Z,-0.06
2022-10-30T14:38:28.843Z,-0.18
2022-10-30T14:41:28.906Z,-0.36
2022-10-30T14:44:07.709Z,-0.35
2022-10-30T14:46:46.031Z,-0.27
2022-10-30T14:49:35.261Z,-0.41
2022-10-30T14:52:16.149Z,-0.44
2022-10-30T14:54:53.563Z,-0.43
2022-10-30T14:57:24.266Z,-0.48
2022-10-30T15:00:29.460Z,-0.47
2022-10-30T15:03:04.649Z,-0.34
2022-10-30T15:05:45.221Z,-0.37
2022-10-30T15:08:31.654Z,-0.34
2022-10-30T15:11:18.101Z,-0.36
2022-10-30T15:13:50.058Z,-0.36
2022-10-30T16:40:23.402Z,0.03
2022-10-30T16:42:58.326Z,0.03
2022-10-30T16:45:51.220Z,0.20
2022-10-30T16:48:27.721Z,0.32
2022-10-30T16:51:05.273Z,0.33
2022-10-30T16:53:34.385Z,0.47
2022-10-30T16:56:05.520Z,0.52
2022-10-30T16:58:34.511Z,0.52
2022-10-30T17:01:07.095Z,0.47
2022-10-30T17:03:39.880Z,0.62
2022-10-30T17:06:26.652Z,0.81
2022-10-30T17:08:59.976Z,0.88
2022-10-30T17:11:40.109Z,0.86
2022-10-30T17:14:20.082Z,0.87
2022-10-30T17:16:56.957Z,0.87
2022-10-30T17:19:48.459Z,0.96
2022-10-30T17:22:21.459Z,0.91
2022-10-30T17:24:50.950Z,0.91
2022-10-30T17:27:47.460Z,0.71
2022-10-30T17:30:38.819Z,0.69
2022-10-30T17:33:36.655Z,0.82
2022-10-30T17:36:07.491Z,0.78
2022-10-30T17:38:36.530Z,0.75
2022-10-30T17:41:09.423Z,0.63
2022-10-30T17:43:52.540Z,0.57
2022-10-30T17:46:21.736Z,0.53
2022-10-30T17:48:51.038Z,0.51
2022-10-30T17:51:20.395Z,0.50
2022-10-30T17:53:50.409Z,0.67
2022-10-30T17:56:22.924Z,0.64
2022-10-30T17:58:54.307Z,0.65
2022-10-30T18:01:25.026Z,0.87
2022-10-30T18:03:56.280Z,0.83
2022-10-30T18:06:27.469Z,0.80
2022-10-30T18:08:56.723Z,0.74
2022-10-30T18:11:27.186Z,0.75
2022-10-30T18:13:58.478Z,0.67
2022-10-30T18:16:28.016Z,0.59
2022-10-30T18:18:57.290Z,0.75
2022-10-30T18:21:27.626Z,0.85
2022-10-30T18:23:56.619Z,0.73
2022-10-30T18:26:27.867Z,0.67
2022-10-30T18:28:59.459Z,0.67
2022-10-30T18:31:29.338Z,0.53
2022-10-30T18:34:05.269Z,0.49
2022-10-30T18:36:36.448Z,0.41
2022-10-30T18:39:06.453Z,0.53
2022-10-30T18:41:38.004Z,0.56
2022-10-30T18:44:08.420Z,0.57
2022-10-30T18:46:37.369Z,0.59
2022-10-30T18:49:06.308Z,0.48
2022-10-30T18:51:35.344Z,0.44
2022-10-30T18:54:04.486Z,0.47
2022-10-30T18:56:33.784Z,0.55
2022-10-30T18:59:02.939Z,0.44
2022-10-30T19:01:33.571Z,0.46
2022-10-30T19:04:04.465Z,0.36
2022-10-30T19:06:34.623Z,0.23
2022-10-30T19:09:03.809Z,0.09
2022-10-30T19:11:33.177Z,0.30
2022-10-30T19:14:02.250Z,0.30
2022-10-30T19:16:33.543Z,0.26
2022-10-30T19:19:02.514Z,0.05
2022-10-30T19:21:33.544Z,0.08
2022-10-30T19:24:03.941Z,0.07
2022-10-30T19:26:33.053Z,0.07
2022-10-30T19:29:02.205Z,0.00
2022-10-30T19:31:32.861Z,0.02
2022-10-30T19:34:01.905Z,0.06
2022-10-30T19:36:33.931Z,0.09
2022-10-30T19:39:08.892Z,0.05
2022-10-30T19:41:38.958Z,0.11
2022-10-30T19:44:08.247Z,0.07
2022-10-30T19:46:38.889Z,-0.03
2022-10-30T19:49:17.530Z,-0.10
2022-10-30T19:51:46.718Z,-0.05
2022-10-30T19:54:15.765Z,0.07
2022-10-30T19:56:45.116Z,0.04
2022-10-30T19:59:16.497Z,0.06
2022-10-30T20:01:46.928Z,-0.06
2022-10-30T20:04:16.005Z,-0.13
2022-10-30T20:06:45.114Z,-0.09
2022-10-30T20:09:14.639Z,-0.09
2022-10-30T20:11:43.705Z,-0.20
2022-10-30T20:14:12.882Z,-0.23
2022-10-30T20:16:41.862Z,-0.11
2022-10-30T20:19:25.381Z,-0.06
2022-10-30T20:21:55.465Z,-0.20
2022-10-30T20:24:25.196Z,-0.19
2022-10-30T20:26:57.548Z,-0.33
2022-10-30T20:29:26.740Z,-0.34
2022-10-30T20:31:55.849Z,-0.39
2022-10-30T20:34:26.379Z,-0.38
2022-10-30T20:36:55.904Z,-0.38
2022-10-30T20:39:24.986Z,-0.37
2022-10-30T20:41:54.042Z,-0.41
2022-10-30T20:44:23.047Z,-0.47
2022-10-30T20:46:52.041Z,-0.40
2022-10-30T20:49:21.227Z,-0.50
2022-10-30T20:51:51.626Z,-0.44
2022-10-30T20:54:20.615Z,-0.56
2022-10-30T20:56:49.914Z,-0.46
2022-10-30T20:59:19.170Z,-0.36
2022-10-30T21:01:48.479Z,-0.36
2022-10-30T21:04:17.675Z,-0.27
2022-10-30T21:06:46.712Z,-0.39
2022-10-30T21:09:17.424Z,-0.44
2022-10-30T21:11:46.474Z,-0.41
2022-10-30T21:14:15.507Z,-0.44
2022-10-30T21:16:44.506Z,-0.34
2022-10-30T21:19:13.537Z,-0.17
2022-10-30T21:21:42.647Z,-0.17
2022-10-30T21:24:11.759Z,-0.36
2022-10-30T21:26:42.249Z,-0.44
2022-10-30T21:29:11.232Z,-0.29
2022-10-30T21:31:40.189Z,-0.34
2022-10-30T21:34:09.219Z,-0.40
2022-10-30T21:36:38.495Z,-0.36
2022-10-30T21:39:07.868Z,-0.35
2022-10-30T21:41:36.876Z,-0.41
2022-10-30T21:44:07.775Z,-0.48
2022-10-30T21:46:36.919Z,-0.45
2022-10-30T21:49:08.508Z,-0.46
2022-10-30T21:51:37.642Z,-0.41
2022-10-30T21:54:06.829Z,-0.35
2022-10-30T21:56:36.427Z,-0.40
2022-10-30T21:59:07.296Z,-0.32
2022-10-30T22:01:38.138Z,-0.45
2022-10-30T22:04:09.179Z,-0.36
2022-10-30T22:06:41.459Z,-0.34
2022-10-30T22:09:11.076Z,-0.36
2022-10-30T22:11:40.290Z,-0.37
2022-10-30T22:14:11.404Z,-0.42
2022-10-30T22:16:41.243Z,-0.39
2022-10-30T22:19:11.866Z,-0.35
2022-10-30T22:21:40.999Z,-0.35
2022-10-30T22:24:10.730Z,-0.45
2022-10-30T22:26:39.843Z,-0.56
2022-10-30T22:29:10.369Z,-0.54
2022-10-30T22:31:39.522Z,-0.50
2022-10-30T22:34:08.614Z,-0.54
2022-10-30T22:36:37.758Z,-0.46
2022-10-30T22:39:09.917Z,-0.50
2022-10-30T22:41:39.587Z,-0.63
2022-10-30T22:44:13.913Z,-0.65
2022-10-30T22:46:43.255Z,-0.68
2022-10-30T22:49:13.353Z,-0.48
2022-10-30T22:51:42.611Z,-0.46
2022-10-30T22:54:13.396Z,-0.46
2022-10-30T22:56:43.252Z,-0.53
2022-10-30T22:59:14.993Z,-0.58
2022-10-30T23:01:44.694Z,-0.60
2022-10-30T23:04:15.512Z,-0.45
2022-10-30T23:06:45.133Z,-0.44
2022-10-30T23:09:18.230Z,-0.46
2022-10-30T23:11:47.205Z,-0.42
2022-10-30T23:14:19.044Z,-0.35
2022-10-30T23:16:47.980Z,-0.26
2022-10-30T23:19:16.953Z,-0.32
2022-10-30T23:21:45.852Z,-0.26
2022-10-30T23:24:14.749Z,-0.25
2022-10-30T23:26:43.737Z,-0.33
2022-10-30T23:29:12.656Z,-0.33
2022-10-30T23:31:43.769Z,-0.21
2022-10-30T23:34:15.310Z,-0.12
2022-10-30T23:36:45.435Z,-0.05
2022-10-30T23:39:16.775Z,0.05
2022-10-30T23:41:46.207Z,-0.03
2022-10-30T23:44:18.509Z,-0.12
2022-10-30T23:46:48.894Z,-0.06
2022-10-30T23:49:17.797Z,-0.12
2022-10-30T23:51:46.681Z,-0.17
2022-10-30T23:54:15.608Z,-0.06
2022-10-30T23:56:44.801Z,-0.05
2022-10-30T23:59:13.679Z,-0.06
